createdAt,value
2022-10-10T00:01:14.221Z,9.30
2022-10-10T00:03:43.159Z,9.30
2022-10-10T00:06:11.806Z,9.30
2022-10-10T00:08:41.682Z,9.30
2022-10-10T00:11:10.445Z,9.20
2022-10-10T00:13:38.545Z,9.20
2022-10-10T00:16:07.180Z,9.30
2022-10-10T00:18:36.024Z,9.20
2022-10-10T00:21:04.233Z,9.20
2022-10-10T00:23:32.226Z,9.20
2022-10-10T00:26:05.587Z,9.20
2022-10-10T00:28:38.372Z,9.10
2022-10-10T00:31:06.970Z,9.20
2022-10-10T00:33:35.164Z,9.10
2022-10-10T00:36:03.170Z,9.10
2022-10-10T00:38:32.477Z,9.10
2022-10-10T00:41:01.962Z,9.10
2022-10-10T00:43:30.875Z,9.20
2022-10-10T00:45:59.150Z,9.20
2022-10-10T00:48:30.021Z,9.20
2022-10-10T00:51:00.685Z,9.20
2022-10-10T00:53:33.612Z,9.20
2022-10-10T00:56:04.463Z,9.20
2022-10-10T00:58:33.620Z,9.10
2022-10-10T01:01:01.655Z,9.00
2022-10-10T01:03:29.786Z,9.00
2022-10-10T01:05:57.806Z,9.00
2022-10-10T01:08:26.021Z,9.00
2022-10-10T01:11:16.054Z,8.90
2022-10-10T01:13:56.769Z,8.90
2022-10-10T01:16:30.692Z,8.90
2022-10-10T01:19:06.835Z,8.80
2022-10-10T01:21:40.764Z,8.80
2022-10-10T01:24:48.582Z,8.80
2022-10-10T01:27:34.520Z,8.90
2022-10-10T01:30:09.082Z,8.90
2022-10-10T01:32:43.926Z,8.90
2022-10-10T01:35:28.274Z,8.90
2022-10-10T01:38:04.369Z,9.00
2022-10-10T01:40:35.106Z,8.90
2022-10-10T01:43:07.062Z,8.90
2022-10-10T01:45:36.622Z,8.90
2022-10-10T01:48:07.178Z,8.90
2022-10-10T01:50:43.329Z,8.90
2022-10-10T01:53:17.606Z,8.90
2022-10-10T01:55:54.723Z,8.90
2022-10-10T01:58:39.549Z,8.90
2022-10-10T02:01:17.288Z,8.90
2022-10-10T02:03:49.358Z,8.90
2022-10-10T02:06:24.370Z,8.80
2022-10-10T02:08:55.632Z,8.80
2022-10-10T02:11:25.821Z,8.70
2022-10-10T02:13:56.860Z,8.70
2022-10-10T02:16:29.979Z,8.70
2022-10-10T02:19:00.024Z,8.70
2022-10-10T02:21:29.567Z,8.80
2022-10-10T02:24:03.330Z,8.70
2022-10-10T02:26:32.993Z,8.70
2022-10-10T02:29:05.096Z,8.70
2022-10-10T02:31:40.062Z,8.60
2022-10-10T02:34:12.774Z,8.70
2022-10-10T02:36:43.623Z,8.60
2022-10-10T02:39:14.066Z,8.60
2022-10-10T02:41:45.474Z,8.60
2022-10-10T02:44:14.419Z,8.50
2022-10-10T02:46:43.826Z,8.60
2022-10-10T02:49:12.643Z,8.60
2022-10-10T02:51:41.046Z,8.50
2022-10-10T02:54:09.021Z,8.50
2022-10-10T02:56:37.046Z,8.50
2022-10-10T02:59:05.022Z,8.50
2022-10-10T03:01:32.998Z,8.60
2022-10-10T03:04:02.750Z,8.50
2022-10-10T03:06:30.822Z,8.50
2022-10-10T03:08:58.803Z,8.60
2022-10-10T03:11:26.833Z,8.50
2022-10-10T03:13:54.921Z,8.50
2022-10-10T03:16:22.928Z,8.50
2022-10-10T03:18:50.925Z,8.50
2022-10-10T03:21:20.326Z,8.50
2022-10-10T03:23:48.322Z,8.40
2022-10-10T03:26:16.432Z,8.40
2022-10-10T03:28:44.794Z,8.50
2022-10-10T03:31:13.054Z,8.40
2022-10-10T03:33:41.094Z,8.40
2022-10-10T03:36:09.142Z,8.40
2022-10-10T03:38:40.502Z,8.30
2022-10-10T03:41:08.594Z,8.40
2022-10-10T03:43:36.713Z,8.40
2022-10-10T03:46:04.755Z,8.40
2022-10-10T03:48:32.800Z,8.30
2022-10-10T03:51:00.982Z,8.40
2022-10-10T03:53:29.241Z,8.40
2022-10-10T03:55:58.766Z,8.50
2022-10-10T03:58:27.111Z,8.50
2022-10-10T04:00:56.429Z,8.50
2022-10-10T04:03:25.328Z,8.50
2022-10-10T04:05:53.877Z,8.50
2022-10-10T04:08:22.257Z,8.40
2022-10-10T04:10:51.085Z,8.50
2022-10-10T04:13:21.732Z,8.40
2022-10-10T04:15:51.940Z,8.40
2022-10-10T04:18:20.019Z,8.40
2022-10-10T04:20:48.066Z,8.40
2022-10-10T04:23:16.363Z,8.40
2022-10-10T04:25:45.148Z,8.30
2022-10-10T04:28:14.449Z,8.30
2022-10-10T04:30:44.066Z,8.20
2022-10-10T04:33:12.307Z,8.20
2022-10-10T04:35:40.346Z,8.20
2022-10-10T04:38:08.954Z,8.20
2022-10-10T04:40:37.762Z,8.20
2022-10-10T04:43:05.801Z,8.10
2022-10-10T04:45:37.338Z,8.10
2022-10-10T04:48:07.086Z,8.10
2022-10-10T04:50:35.084Z,8.00
2022-10-10T04:53:03.583Z,8.00
2022-10-10T04:55:31.585Z,8.00
2022-10-10T04:57:59.613Z,7.90
2022-10-10T05:00:28.090Z,7.90
2022-10-10T05:02:56.084Z,7.80
2022-10-10T05:05:25.458Z,7.80
2022-10-10T05:07:55.698Z,7.80
2022-10-10T05:10:24.381Z,7.70
2022-10-10T05:12:53.107Z,7.80
2022-10-10T05:15:22.719Z,7.80
2022-10-10T05:17:50.709Z,7.80
2022-10-10T05:20:18.831Z,8.00
2022-10-10T05:22:48.303Z,7.90
2022-10-10T05:25:16.602Z,7.80
2022-10-10T05:27:44.625Z,7.80
2022-10-10T05:30:13.687Z,7.80
2022-10-10T05:32:41.713Z,7.80
2022-10-10T05:35:10.127Z,7.90
2022-10-10T05:37:38.131Z,7.80
2022-10-10T05:40:08.946Z,7.90
2022-10-10T05:42:37.002Z,7.90
2022-10-10T05:45:05.355Z,7.80
2022-10-10T05:47:33.382Z,7.80
2022-10-10T05:50:01.359Z,7.80
2022-10-10T05:52:29.721Z,7.80
2022-10-10T05:54:57.783Z,7.80
2022-10-10T05:57:27.194Z,7.70
2022-10-10T05:59:55.273Z,7.80
2022-10-10T06:02:23.352Z,7.80
2022-10-10T06:04:51.431Z,7.80
2022-10-10T06:07:19.493Z,7.80
2022-10-10T06:09:47.457Z,7.80
2022-10-10T06:12:15.489Z,7.90
2022-10-10T06:14:45.089Z,7.90
2022-10-10T06:17:13.143Z,8.00
2022-10-10T06:19:41.128Z,8.20
2022-10-10T06:22:11.616Z,8.30
2022-10-10T06:24:39.639Z,8.20
2022-10-10T06:27:07.635Z,8.40
2022-10-10T06:29:35.669Z,8.40
2022-10-10T06:32:07.363Z,8.50
2022-10-10T06:34:35.428Z,8.50
2022-10-10T06:37:03.407Z,8.60
2022-10-10T06:39:31.628Z,8.80
2022-10-10T06:41:59.685Z,8.80
2022-10-10T06:44:27.688Z,8.90
2022-10-10T06:46:55.704Z,9.00
2022-10-10T06:49:25.176Z,9.10
2022-10-10T06:51:53.229Z,9.20
2022-10-10T06:54:21.310Z,9.30
2022-10-10T06:56:49.543Z,9.30
2022-10-10T06:59:17.556Z,9.60
2022-10-10T07:01:45.570Z,9.70
2022-10-10T07:04:14.025Z,9.80
2022-10-10T07:06:43.459Z,9.70
2022-10-10T07:09:11.566Z,9.80
2022-10-10T07:11:41.583Z,10.00
2022-10-10T07:14:09.584Z,10.50
2022-10-10T07:16:37.642Z,10.20
2022-10-10T07:19:06.114Z,10.00
2022-10-10T07:21:34.191Z,9.90
2022-10-10T07:24:03.599Z,10.00
2022-10-10T07:26:36.992Z,10.00
2022-10-10T07:29:05.895Z,9.90
2022-10-10T07:31:34.601Z,10.00
2022-10-10T07:34:02.651Z,9.90
2022-10-10T07:36:30.876Z,10.00
2022-10-10T07:38:59.062Z,9.90
2022-10-10T07:41:28.431Z,9.90
2022-10-10T07:43:57.846Z,9.90
2022-10-10T07:46:25.831Z,10.00
2022-10-10T07:48:53.883Z,10.00
2022-10-10T07:51:22.046Z,10.00
2022-10-10T07:53:50.090Z,10.10
2022-10-10T07:56:18.083Z,10.20
2022-10-10T07:58:47.495Z,10.30
2022-10-10T08:01:15.690Z,10.40
2022-10-10T08:03:43.936Z,10.60
2022-10-10T08:06:15.779Z,10.80
2022-10-10T08:08:51.250Z,11.00
2022-10-10T08:11:20.639Z,11.20
2022-10-10T08:13:51.426Z,11.20
2022-10-10T08:16:20.113Z,11.40
2022-10-10T08:18:48.328Z,11.60
2022-10-10T08:21:17.409Z,11.80
2022-10-10T08:23:45.680Z,11.90
2022-10-10T08:26:15.821Z,12.10
2022-10-10T08:28:44.446Z,12.30
2022-10-10T08:31:15.361Z,12.40
2022-10-10T08:33:45.329Z,12.50
2022-10-10T08:36:15.417Z,12.70
2022-10-10T08:38:43.888Z,12.90
2022-10-10T08:41:19.424Z,13.10
2022-10-10T08:43:50.557Z,13.10
2022-10-10T08:46:34.263Z,13.30
2022-10-10T08:49:13.919Z,13.40
2022-10-10T08:51:47.458Z,13.50
2022-10-10T08:54:18.478Z,13.60
2022-10-10T08:56:47.103Z,14.10
2022-10-10T08:59:19.161Z,14.30
2022-10-10T09:02:18.105Z,14.40
2022-10-10T09:04:37.896Z,14.60
2022-10-10T09:07:15.934Z,14.80
2022-10-10T09:09:52.736Z,15.00
2022-10-10T09:12:29.422Z,15.20
2022-10-10T09:15:06.749Z,15.50
2022-10-10T09:17:43.073Z,15.70
2022-10-10T09:20:22.755Z,16.00
2022-10-10T09:22:55.815Z,16.30
2022-10-10T09:25:28.196Z,16.40
2022-10-10T09:28:02.939Z,16.50
2022-10-10T09:30:33.292Z,16.40
2022-10-10T09:33:09.803Z,16.60
2022-10-10T09:35:40.028Z,16.60
2022-10-10T09:38:28.541Z,16.70
2022-10-10T09:41:01.000Z,16.70
2022-10-10T09:43:33.387Z,16.80
2022-10-10T09:46:01.785Z,17.00
2022-10-10T09:48:34.530Z,17.00
2022-10-10T09:51:05.577Z,17.40
2022-10-10T09:53:33.760Z,17.70
2022-10-10T09:56:02.142Z,18.20
2022-10-10T09:58:35.433Z,18.10
2022-10-10T10:01:18.735Z,18.30
2022-10-10T10:04:23.334Z,18.70
2022-10-10T10:07:06.373Z,19.00
2022-10-10T10:09:34.938Z,19.30
2022-10-10T10:12:05.329Z,19.70
2022-10-10T10:14:39.610Z,20.00
2022-10-10T10:17:09.391Z,21.00
2022-10-10T10:19:40.784Z,20.60
2022-10-10T10:22:31.370Z,21.30
2022-10-10T10:24:59.937Z,23.10
2022-10-10T10:27:29.968Z,23.10
2022-10-10T10:29:59.364Z,23.90
2022-10-10T10:32:45.441Z,23.20
2022-10-10T10:35:24.185Z,24.50
2022-10-10T10:38:07.223Z,24.00
2022-10-10T10:40:41.063Z,22.80
2022-10-10T10:43:36.095Z,21.60
2022-10-10T10:46:15.286Z,21.30
2022-10-10T10:48:46.765Z,20.60
2022-10-10T10:51:41.373Z,21.20
2022-10-10T10:54:23.979Z,21.80
2022-10-10T10:56:58.970Z,21.60
2022-10-10T11:00:21.772Z,22.40
2022-10-10T11:02:57.622Z,22.50
2022-10-10T11:05:41.278Z,21.30
2022-10-10T11:08:29.185Z,21.40
2022-10-10T11:11:07.287Z,20.90
2022-10-10T11:13:41.717Z,20.60
2022-10-10T11:16:43.614Z,20.30
2022-10-10T11:19:19.350Z,19.90
2022-10-10T11:21:51.101Z,20.20
2022-10-10T11:24:28.825Z,20.40
2022-10-10T11:27:01.999Z,20.60
2022-10-10T11:29:35.371Z,20.50
2022-10-10T11:32:11.682Z,20.30
2022-10-10T11:34:44.243Z,19.90
2022-10-10T11:37:17.608Z,19.40
2022-10-10T11:39:54.802Z,19.10
2022-10-10T11:42:27.125Z,19.00
2022-10-10T11:45:00.797Z,18.90
2022-10-10T11:47:36.349Z,19.00
2022-10-10T11:50:12.656Z,19.00
2022-10-10T11:52:48.061Z,19.30
2022-10-10T11:55:23.584Z,19.40
2022-10-10T11:57:55.887Z,19.50
2022-10-10T12:00:24.980Z,19.60
2022-10-10T12:02:57.601Z,19.50
2022-10-10T12:05:29.392Z,19.50
2022-10-10T12:08:08.305Z,19.30
2022-10-10T12:10:44.500Z,19.40
2022-10-10T12:13:26.712Z,19.30
2022-10-10T12:15:58.521Z,19.30
2022-10-10T12:18:30.589Z,19.30
2022-10-10T12:21:07.114Z,19.20
2022-10-10T12:23:35.699Z,19.10
2022-10-10T12:26:05.553Z,18.90
2022-10-10T12:28:57.392Z,19.10
2022-10-10T12:31:38.712Z,19.40
2022-10-10T12:34:16.978Z,19.90
2022-10-10T12:36:58.096Z,20.80
2022-10-10T12:39:40.446Z,22.30
2022-10-10T12:42:35.027Z,23.30
2022-10-10T12:45:03.190Z,22.40
2022-10-10T12:48:04.389Z,21.20
2022-10-10T12:50:36.467Z,21.10
2022-10-10T12:53:08.080Z,20.90
2022-10-10T12:55:43.533Z,20.50
2022-10-10T12:58:26.937Z,20.50
2022-10-10T13:00:57.812Z,20.30
2022-10-10T13:03:31.739Z,20.20
2022-10-10T13:06:05.626Z,20.80
2022-10-10T13:08:37.207Z,21.40
2022-10-10T13:11:10.752Z,21.40
2022-10-10T13:13:41.685Z,21.70
2022-10-10T13:16:13.846Z,22.10
2022-10-10T13:18:44.196Z,22.60
2022-10-10T13:21:14.632Z,21.80
2022-10-10T13:26:35.512Z,20.60
2022-10-10T13:29:19.233Z,20.30
2022-10-10T13:31:47.435Z,20.50
2022-10-10T13:34:21.244Z,20.60
2022-10-10T13:36:54.701Z,20.50
2022-10-10T13:39:23.238Z,20.10
2022-10-10T13:41:52.005Z,20.10
2022-10-10T13:44:26.490Z,20.30
2022-10-10T13:46:54.486Z,20.30
2022-10-10T13:49:25.723Z,20.20
2022-10-10T13:52:05.586Z,19.90
2022-10-10T13:54:42.761Z,19.80
2022-10-10T13:57:17.867Z,19.70
2022-10-10T13:59:50.200Z,19.60
2022-10-10T14:02:20.402Z,19.40
2022-10-10T14:04:51.799Z,19.20
2022-10-10T14:07:23.574Z,19.10
2022-10-10T14:09:55.305Z,19.00
2022-10-10T14:12:29.585Z,19.00
2022-10-10T14:15:00.025Z,19.00
2022-10-10T14:17:29.337Z,18.90
2022-10-10T14:19:58.094Z,19.00
2022-10-10T14:22:26.748Z,19.10
2022-10-10T14:24:54.797Z,19.10
2022-10-10T14:27:25.382Z,19.00
2022-10-10T14:29:54.645Z,19.00
2022-10-10T14:32:25.042Z,18.80
2022-10-10T14:34:53.130Z,18.60
2022-10-10T14:37:24.893Z,18.40
2022-10-10T14:39:53.085Z,18.40
2022-10-10T14:42:23.378Z,18.30
2022-10-10T14:44:51.424Z,18.10
2022-10-10T14:47:21.297Z,18.00
2022-10-10T14:49:52.546Z,17.90
2022-10-10T14:52:20.680Z,18.00
2022-10-10T14:54:48.691Z,18.00
2022-10-10T14:57:16.751Z,18.00
2022-10-10T14:59:46.030Z,18.10
2022-10-10T15:02:19.151Z,18.20
2022-10-10T15:04:47.197Z,18.20
2022-10-10T15:07:16.614Z,18.30
2022-10-10T15:10:17.634Z,18.30
2022-10-10T15:12:33.749Z,18.20
2022-10-10T15:15:01.734Z,18.20
2022-10-10T15:17:30.986Z,18.10
2022-10-10T15:19:59.001Z,18.10
2022-10-10T15:22:30.049Z,18.10
2022-10-10T15:24:58.222Z,18.10
2022-10-10T15:27:27.971Z,18.10
2022-10-10T15:29:56.051Z,18.10
2022-10-10T15:32:24.097Z,18.10
2022-10-10T15:34:53.216Z,18.00
2022-10-10T15:37:21.306Z,18.00
2022-10-10T15:39:50.668Z,17.90
2022-10-10T15:42:22.774Z,17.90
2022-10-10T15:44:52.530Z,17.80
2022-10-10T15:47:23.902Z,17.70
2022-10-10T15:49:52.293Z,17.70
2022-10-10T15:52:22.947Z,17.60
2022-10-10T15:54:52.302Z,17.60
2022-10-10T15:57:22.167Z,17.50
2022-10-10T15:59:50.238Z,17.50
2022-10-10T16:02:18.925Z,17.40
2022-10-10T16:04:47.038Z,17.30
2022-10-10T16:07:34.639Z,17.30
2022-10-10T16:10:04.900Z,17.20
2022-10-10T16:12:32.920Z,17.20
2022-10-10T16:15:04.800Z,17.10
2022-10-10T16:17:35.170Z,17.10
2022-10-10T16:20:03.272Z,17.00
2022-10-10T16:22:31.319Z,16.90
2022-10-10T16:27:48.767Z,16.70
2022-10-10T16:30:16.964Z,16.60
2022-10-10T16:32:45.075Z,16.40
2022-10-10T16:35:13.096Z,16.40
2022-10-10T16:37:41.083Z,16.30
2022-10-10T16:40:10.167Z,16.30
2022-10-10T16:42:38.315Z,16.20
2022-10-10T16:45:08.926Z,16.10
2022-10-10T16:47:37.350Z,16.00
2022-10-10T16:50:07.066Z,16.00
2022-10-10T16:52:37.970Z,16.00
2022-10-10T16:55:07.620Z,15.90
2022-10-10T16:57:35.913Z,15.80
2022-10-10T17:00:04.211Z,15.80
2022-10-10T17:02:33.583Z,15.70
2022-10-10T17:05:01.609Z,15.70
2022-10-10T17:07:29.678Z,15.70
2022-10-10T17:09:57.677Z,15.70
2022-10-10T17:12:25.719Z,15.60
2022-10-10T17:14:53.713Z,15.50
2022-10-10T17:17:22.542Z,15.40
2022-10-10T17:19:52.211Z,15.20
2022-10-10T17:22:20.229Z,15.10
2022-10-10T17:24:48.449Z,14.90
2022-10-10T17:27:16.507Z,14.90
2022-10-10T17:29:44.467Z,14.80
2022-10-10T17:32:12.958Z,14.80
2022-10-10T17:34:40.942Z,14.70
2022-10-10T17:37:10.381Z,14.60
2022-10-10T17:39:38.579Z,14.50
2022-10-10T17:42:06.795Z,14.40
2022-10-10T17:44:41.946Z,14.30
2022-10-10T17:47:11.739Z,14.30
2022-10-10T17:49:44.901Z,14.30
2022-10-10T17:52:18.846Z,14.20
2022-10-10T17:54:49.050Z,14.20
2022-10-10T17:57:17.325Z,14.20
2022-10-10T17:59:45.383Z,14.20
2022-10-10T18:02:16.390Z,14.20
2022-10-10T18:04:44.669Z,14.10
2022-10-10T18:07:14.487Z,14.10
2022-10-10T18:09:42.686Z,14.00
2022-10-10T18:12:10.837Z,14.00
2022-10-10T18:14:39.017Z,14.00
2022-10-10T18:17:07.051Z,14.00
2022-10-10T18:19:35.077Z,14.00
2022-10-10T18:22:03.072Z,14.00
2022-10-10T18:24:32.482Z,13.90
2022-10-10T18:27:00.482Z,13.90
2022-10-10T18:29:28.466Z,13.90
2022-10-10T18:31:56.635Z,13.90
2022-10-10T18:34:24.729Z,13.90
2022-10-10T18:36:52.694Z,13.90
2022-10-10T18:39:20.673Z,13.80
2022-10-10T18:41:50.201Z,13.80
2022-10-10T18:44:19.764Z,13.80
2022-10-10T18:46:49.891Z,13.80
2022-10-10T18:49:17.884Z,13.80
2022-10-10T18:51:45.957Z,13.80
2022-10-10T18:54:16.469Z,13.70
2022-10-10T18:56:45.045Z,13.70
2022-10-10T18:59:16.447Z,13.60
2022-10-10T19:01:46.365Z,13.60
2022-10-10T19:04:16.342Z,13.60
2022-10-10T19:06:45.561Z,13.50
2022-10-10T19:09:15.438Z,13.40
2022-10-10T19:11:45.615Z,13.30
2022-10-10T19:14:16.970Z,13.20
2022-10-10T19:16:46.638Z,13.00
2022-10-10T19:19:16.647Z,12.90
2022-10-10T19:21:46.216Z,12.80
2022-10-10T19:24:15.289Z,12.70
2022-10-10T19:26:44.678Z,12.60
2022-10-10T19:29:14.762Z,12.50
2022-10-10T19:31:42.777Z,12.30
2022-10-10T19:34:10.831Z,12.20
2022-10-10T19:36:41.451Z,12.20
2022-10-10T19:39:12.954Z,12.10
2022-10-10T19:41:41.081Z,12.00
2022-10-10T19:44:09.099Z,11.90
2022-10-10T19:46:38.476Z,11.80
2022-10-10T19:49:06.766Z,11.70
2022-10-10T19:51:34.742Z,11.70
2022-10-10T19:54:02.879Z,11.60
2022-10-10T19:56:31.021Z,11.50
2022-10-10T19:59:01.074Z,11.40
2022-10-10T20:01:30.928Z,11.30
2022-10-10T20:04:00.419Z,11.20
2022-10-10T20:06:28.740Z,11.20
2022-10-10T20:08:56.851Z,11.10
2022-10-10T20:11:26.222Z,11.00
2022-10-10T20:13:55.430Z,11.00
2022-10-10T20:16:24.687Z,10.90
2022-10-10T20:18:52.735Z,10.80
2022-10-10T20:21:25.180Z,10.80
2022-10-10T20:23:54.421Z,10.70
2022-10-10T20:26:25.452Z,10.70
2022-10-10T20:28:54.061Z,10.70
2022-10-10T20:31:23.993Z,10.70
2022-10-10T20:33:53.661Z,10.70
2022-10-10T20:36:23.921Z,10.60
2022-10-10T20:38:55.506Z,10.50
2022-10-10T20:41:24.978Z,10.50
2022-10-10T20:43:58.027Z,10.40
2022-10-10T20:46:27.629Z,10.30
2022-10-10T20:48:56.173Z,10.30
2022-10-10T20:51:26.964Z,10.30
2022-10-10T20:53:57.331Z,10.30
2022-10-10T20:56:26.376Z,10.30
2022-10-10T20:58:54.471Z,10.20
2022-10-10T21:01:24.397Z,10.10
2022-10-10T21:03:52.639Z,10.00
2022-10-10T21:06:22.937Z,10.00
2022-10-10T21:08:53.182Z,10.00
2022-10-10T21:11:22.650Z,10.00
2022-10-10T21:13:54.171Z,10.00
2022-10-10T21:16:22.436Z,10.00
2022-10-10T21:18:57.409Z,9.90
2022-10-10T21:21:27.492Z,9.90
2022-10-10T21:23:57.072Z,9.80
2022-10-10T21:26:26.937Z,9.80
2022-10-10T21:28:55.567Z,9.70
2022-10-10T21:31:26.013Z,9.60
2022-10-10T21:33:54.282Z,9.60
2022-10-10T21:36:23.574Z,9.60
2022-10-10T21:38:51.625Z,9.50
2022-10-10T21:41:21.894Z,9.50
2022-10-10T21:43:52.125Z,9.40
2022-10-10T21:46:23.685Z,9.40
2022-10-10T21:48:52.325Z,9.40
2022-10-10T21:51:20.480Z,9.30
2022-10-10T21:53:48.917Z,9.40
2022-10-10T21:56:16.960Z,9.30
2022-10-10T21:58:46.678Z,9.20
2022-10-10T22:01:16.703Z,9.10
2022-10-10T22:03:52.636Z,9.10
2022-10-10T22:06:22.550Z,9.10
2022-10-10T22:08:52.392Z,9.00
2022-10-10T22:11:23.206Z,9.00
2022-10-10T22:13:52.873Z,8.90
2022-10-10T22:16:21.126Z,8.80
2022-10-10T22:18:53.452Z,8.90
2022-10-10T22:21:21.601Z,8.80
2022-10-10T22:23:49.650Z,8.80
2022-10-10T22:26:17.918Z,8.70
2022-10-10T22:28:46.864Z,8.60
2022-10-10T22:31:17.299Z,8.60
2022-10-10T22:33:46.227Z,8.60
2022-10-10T22:36:14.368Z,8.60
2022-10-10T22:38:44.315Z,8.50
2022-10-10T22:41:13.190Z,8.50
2022-10-10T22:43:41.259Z,8.50
2022-10-10T22:46:09.652Z,8.40
2022-10-10T22:48:39.212Z,8.50
2022-10-10T22:51:12.921Z,8.60
2022-10-10T22:53:41.440Z,8.60
2022-10-10T22:56:10.927Z,8.60
2022-10-10T22:58:39.215Z,8.60
2022-10-10T23:01:09.664Z,8.50
2022-10-10T23:03:39.359Z,8.50
2022-10-10T23:06:08.493Z,8.50
2022-10-10T23:08:37.056Z,8.60
2022-10-10T23:11:05.478Z,8.60
2022-10-10T23:13:33.838Z,8.60
2022-10-10T23:16:02.268Z,8.60
2022-10-10T23:18:30.622Z,8.50
2022-10-10T23:21:00.630Z,8.30
2022-10-10T23:23:28.690Z,8.30
2022-10-10T23:25:56.686Z,8.20
2022-10-10T23:28:24.936Z,8.10
2022-10-10T23:30:52.943Z,8.20
2022-10-10T23:33:20.953Z,8.30
2022-10-10T23:35:59.460Z,8.10
2022-10-10T23:38:27.798Z,8.00
2022-10-10T23:40:56.622Z,8.00
2022-10-10T23:43:24.947Z,8.00
2022-10-10T23:45:53.251Z,7.90
2022-10-10T23:48:21.373Z,7.90
2022-10-10T23:50:49.486Z,8.00
2022-10-10T23:53:18.847Z,7.90
2022-10-10T23:55:48.137Z,7.70
2022-10-10T23:58:17.045Z,7.80
